sensor_id;sensor_type;location;lat;lon;timestamp;temperature;humidity
37446;DHT22;23307;51.136;14.942;2024-01-27T00:00:25;5.10;99.90
37446;DHT22;23307;51.136;14.942;2024-01-27T00:02:51;5.10;99.90
37446;DHT22;23307;51.136;14.942;2024-01-27T00:05:16;5.10;99.90
37446;DHT22;23307;51.136;14.942;2024-01-27T00:07:42;5.10;99.90
37446;DHT22;23307;51.136;14.942;2024-01-27T00:10:08;5.00;99.90
37446;DHT22;23307;51.136;14.942;2024-01-27T00:12:33;5.00;99.90
37446;DHT22;23307;51.136;14.942;2024-01-27T00:14:59;5.00;99.90
37446;DHT22;23307;51.136;14.942;2024-01-27T00:17:24;5.00;99.90
37446;DHT22;23307;51.136;14.942;2024-01-27T00:19:51;5.00;99.90
37446;DHT22;23307;51.136;14.942;2024-01-27T00:22:17;5.00;99.90
37446;DHT22;23307;51.136;14.942;2024-01-27T00:24:43;5.00;99.90
37446;DHT22;23307;51.136;14.942;2024-01-27T00:27:09;5.00;99.90
37446;DHT22;23307;51.136;14.942;2024-01-27T00:29:35;4.90;99.90
37446;DHT22;23307;51.136;14.942;2024-01-27T00:32:00;4.90;99.90
37446;DHT22;23307;51.136;14.942;2024-01-27T00:34:25;4.90;99.90
37446;DHT22;23307;51.136;14.942;2024-01-27T00:36:51;4.80;99.90
37446;DHT22;23307;51.136;14.942;2024-01-27T00:39:20;4.90;99.90
37446;DHT22;23307;51.136;14.942;2024-01-27T00:41:46;4.90;99.90
37446;DHT22;23307;51.136;14.942;2024-01-27T00:44:11;4.80;99.90
37446;DHT22;23307;51.136;14.942;2024-01-27T00:46:37;4.80;99.90
37446;DHT22;23307;51.136;14.942;2024-01-27T00:49:03;4.80;99.90
37446;DHT22;23307;51.136;14.942;2024-01-27T00:51:28;4.70;99.90
37446;DHT22;23307;51.136;14.942;2024-01-27T00:53:54;4.70;99.90
37446;DHT22;23307;51.136;14.942;2024-01-27T00:56:19;4.70;99.90
37446;DHT22;23307;51.136;14.942;2024-01-27T00:58:45;4.70;99.90
37446;DHT22;23307;51.136;14.942;2024-01-27T01:01:10;4.60;99.90
37446;DHT22;23307;51.136;14.942;2024-01-27T01:03:36;4.60;99.90
37446;DHT22;23307;51.136;14.942;2024-01-27T01:06:01;4.60;99.90
37446;DHT22;23307;51.136;14.942;2024-01-27T01:08:28;4.60;99.90
37446;DHT22;23307;51.136;14.942;2024-01-27T01:10:53;4.60;99.90
37446;DHT22;23307;51.136;14.942;2024-01-27T01:13:19;4.60;99.90
37446;DHT22;23307;51.136;14.942;2024-01-27T01:15:45;4.60;99.90
37446;DHT22;23307;51.136;14.942;2024-01-27T01:18:10;4.60;99.90
37446;DHT22;23307;51.136;14.942;2024-01-27T01:20:36;4.60;99.90
37446;DHT22;23307;51.136;14.942;2024-01-27T01:23:01;4.60;99.90
37446;DHT22;23307;51.136;14.942;2024-01-27T01:25:27;4.70;99.90
37446;DHT22;23307;51.136;14.942;2024-01-27T01:27:52;4.70;99.90
37446;DHT22;23307;51.136;14.942;2024-01-27T01:30:18;4.70;99.90
37446;DHT22;23307;51.136;14.942;2024-01-27T01:32:43;4.70;99.90
37446;DHT22;23307;51.136;14.942;2024-01-27T01:35:12;4.70;99.90
37446;DHT22;23307;51.136;14.942;2024-01-27T01:37:37;4.70;99.90
37446;DHT22;23307;51.136;14.942;2024-01-27T01:40:03;4.70;99.90
37446;DHT22;23307;51.136;14.942;2024-01-27T01:42:29;4.70;99.90
37446;DHT22;23307;51.136;14.942;2024-01-27T01:44:55;4.70;99.90
37446;DHT22;23307;51.136;14.942;2024-01-27T01:47:20;4.70;99.90
37446;DHT22;23307;51.136;14.942;2024-01-27T01:49:48;4.70;99.90
37446;DHT22;23307;51.136;14.942;2024-01-27T01:52:14;4.60;99.90
37446;DHT22;23307;51.136;14.942;2024-01-27T01:54:47;4.70;99.90
37446;DHT22;23307;51.136;14.942;2024-01-27T01:57:13;4.60;99.90
37446;DHT22;23307;51.136;14.942;2024-01-27T01:59:39;4.60;99.90
37446;DHT22;23307;51.136;14.942;2024-01-27T02:02:06;4.60;99.90
37446;DHT22;23307;51.136;14.942;2024-01-27T02:04:42;4.60;99.90
37446;DHT22;23307;51.136;14.942;2024-01-27T02:07:08;4.70;99.90
37446;DHT22;23307;51.136;14.942;2024-01-27T02:09:34;4.60;99.90
37446;DHT22;23307;51.136;14.942;2024-01-27T02:11:59;4.60;99.90
37446;DHT22;23307;51.136;14.942;2024-01-27T02:14:26;4.60;99.90
37446;DHT22;23307;51.136;14.942;2024-01-27T02:16:53;4.50;99.90
37446;DHT22;23307;51.136;14.942;2024-01-27T02:19:18;4.50;99.90
37446;DHT22;23307;51.136;14.942;2024-01-27T02:21:44;4.50;99.90
37446;DHT22;23307;51.136;14.942;2024-01-27T02:24:09;4.50;99.90
37446;DHT22;23307;51.136;14.942;2024-01-27T02:26:35;4.50;99.90
37446;DHT22;23307;51.136;14.942;2024-01-27T02:29:01;4.50;99.90
37446;DHT22;23307;51.136;14.942;2024-01-27T02:31:26;4.50;99.90
37446;DHT22;23307;51.136;14.942;2024-01-27T02:33:52;4.40;99.90
37446;DHT22;23307;51.136;14.942;2024-01-27T02:36:17;4.40;99.90
37446;DHT22;23307;51.136;14.942;2024-01-27T02:38:43;4.40;99.90
37446;DHT22;23307;51.136;14.942;2024-01-27T02:41:10;4.40;99.90
37446;DHT22;23307;51.136;14.942;2024-01-27T02:43:36;4.30;99.90
37446;DHT22;23307;51.136;14.942;2024-01-27T02:46:02;4.30;99.90
37446;DHT22;23307;51.136;14.942;2024-01-27T02:48:27;4.30;99.90
37446;DHT22;23307;51.136;14.942;2024-01-27T02:50:53;4.30;99.90
37446;DHT22;23307;51.136;14.942;2024-01-27T02:53:18;4.30;99.90
37446;DHT22;23307;51.136;14.942;2024-01-27T02:55:44;4.30;99.90
37446;DHT22;23307;51.136;14.942;2024-01-27T02:58:10;4.30;99.90
37446;DHT22;23307;51.136;14.942;2024-01-27T03:00:35;4.30;99.90
37446;DHT22;23307;51.136;14.942;2024-01-27T03:03:01;4.30;99.90
37446;DHT22;23307;51.136;14.942;2024-01-27T03:05:26;4.30;99.90
37446;DHT22;23307;51.136;14.942;2024-01-27T03:07:52;4.30;99.90
37446;DHT22;23307;51.136;14.942;2024-01-27T03:10:17;4.20;99.90
37446;DHT22;23307;51.136;14.942;2024-01-27T03:12:43;4.20;99.90
37446;DHT22;23307;51.136;14.942;2024-01-27T03:15:08;4.20;99.90
37446;DHT22;23307;51.136;14.942;2024-01-27T03:17:34;4.20;99.90
37446;DHT22;23307;51.136;14.942;2024-01-27T03:19:59;4.30;99.90
37446;DHT22;23307;51.136;14.942;2024-01-27T03:22:25;4.30;99.90
37446;DHT22;23307;51.136;14.942;2024-01-27T03:24:50;4.30;99.90
37446;DHT22;23307;51.136;14.942;2024-01-27T03:27:18;4.30;99.90
37446;DHT22;23307;51.136;14.942;2024-01-27T03:29:44;4.30;99.90
37446;DHT22;23307;51.136;14.942;2024-01-27T03:32:09;4.30;99.90
37446;DHT22;23307;51.136;14.942;2024-01-27T03:34:34;4.30;99.90
37446;DHT22;23307;51.136;14.942;2024-01-27T03:37:00;4.30;99.90
37446;DHT22;23307;51.136;14.942;2024-01-27T03:39:25;4.30;99.90
37446;DHT22;23307;51.136;14.942;2024-01-27T03:41:51;4.30;99.90
37446;DHT22;23307;51.136;14.942;2024-01-27T03:44:16;4.30;99.90
37446;DHT22;23307;51.136;14.942;2024-01-27T03:46:42;4.30;99.90
37446;DHT22;23307;51.136;14.942;2024-01-27T03:49:07;4.40;99.90
37446;DHT22;23307;51.136;14.942;2024-01-27T03:51:33;4.40;99.90
37446;DHT22;23307;51.136;14.942;2024-01-27T03:53:58;4.40;99.90
37446;DHT22;23307;51.136;14.942;2024-01-27T03:56:24;4.40;99.90
37446;DHT22;23307;51.136;14.942;2024-01-27T03:58:49;4.40;99.90
37446;DHT22;23307;51.136;14.942;2024-01-27T04:01:15;4.40;99.90
37446;DHT22;23307;51.136;14.942;2024-01-27T04:03:40;4.40;99.90
37446;DHT22;23307;51.136;14.942;2024-01-27T04:06:06;4.40;99.90
37446;DHT22;23307;51.136;14.942;2024-01-27T04:08:31;4.40;99.90
37446;DHT22;23307;51.136;14.942;2024-01-27T04:10:57;4.40;99.90
37446;DHT22;23307;51.136;14.942;2024-01-27T04:13:23;4.40;99.90
37446;DHT22;23307;51.136;14.942;2024-01-27T04:15:48;4.40;99.90
37446;DHT22;23307;51.136;14.942;2024-01-27T04:18:16;4.40;99.90
37446;DHT22;23307;51.136;14.942;2024-01-27T04:20:42;4.40;99.90
37446;DHT22;23307;51.136;14.942;2024-01-27T04:23:07;4.50;99.90
37446;DHT22;23307;51.136;14.942;2024-01-27T04:25:33;4.40;99.90
37446;DHT22;23307;51.136;14.942;2024-01-27T04:27:59;4.40;99.90
37446;DHT22;23307;51.136;14.942;2024-01-27T04:30:24;4.30;99.90
37446;DHT22;23307;51.136;14.942;2024-01-27T04:32:50;4.30;99.90
37446;DHT22;23307;51.136;14.942;2024-01-27T04:35:17;4.30;99.90
37446;DHT22;23307;51.136;14.942;2024-01-27T04:37:42;4.30;99.90
37446;DHT22;23307;51.136;14.942;2024-01-27T04:40:10;4.30;99.90
37446;DHT22;23307;51.136;14.942;2024-01-27T04:42:38;4.30;99.90
37446;DHT22;23307;51.136;14.942;2024-01-27T04:45:04;4.20;99.90
37446;DHT22;23307;51.136;14.942;2024-01-27T04:47:30;4.20;99.90
37446;DHT22;23307;51.136;14.942;2024-01-27T04:49:56;4.30;99.90
37446;DHT22;23307;51.136;14.942;2024-01-27T04:52:23;4.30;99.90
37446;DHT22;23307;51.136;14.942;2024-01-27T04:54:48;4.30;99.90
37446;DHT22;23307;51.136;14.942;2024-01-27T04:57:14;4.30;99.90
37446;DHT22;23307;51.136;14.942;2024-01-27T04:59:39;4.30;99.90
37446;DHT22;23307;51.136;14.942;2024-01-27T05:02:05;4.30;99.90
37446;DHT22;23307;51.136;14.942;2024-01-27T05:04:32;4.30;99.90
37446;DHT22;23307;51.136;14.942;2024-01-27T05:06:57;4.30;99.90
37446;DHT22;23307;51.136;14.942;2024-01-27T05:09:23;4.30;99.90
37446;DHT22;23307;51.136;14.942;2024-01-27T05:11:48;4.30;99.90
37446;DHT22;23307;51.136;14.942;2024-01-27T05:14:16;4.30;99.90
37446;DHT22;23307;51.136;14.942;2024-01-27T05:16:42;4.30;99.90
37446;DHT22;23307;51.136;14.942;2024-01-27T05:19:07;4.30;99.90
37446;DHT22;23307;51.136;14.942;2024-01-27T05:21:33;4.30;99.90
37446;DHT22;23307;51.136;14.942;2024-01-27T05:23:58;4.30;99.90
37446;DHT22;23307;51.136;14.942;2024-01-27T05:26:24;4.30;99.90
37446;DHT22;23307;51.136;14.942;2024-01-27T05:28:49;4.30;99.90
37446;DHT22;23307;51.136;14.942;2024-01-27T05:31:15;4.30;99.90
37446;DHT22;23307;51.136;14.942;2024-01-27T05:33:42;4.30;99.90
37446;DHT22;23307;51.136;14.942;2024-01-27T05:36:08;4.40;99.90
37446;DHT22;23307;51.136;14.942;2024-01-27T05:38:33;4.30;99.90
37446;DHT22;23307;51.136;14.942;2024-01-27T05:41:02;4.30;99.90
37446;DHT22;23307;51.136;14.942;2024-01-27T05:43:28;4.30;99.90
37446;DHT22;23307;51.136;14.942;2024-01-27T05:45:54;4.30;99.90
37446;DHT22;23307;51.136;14.942;2024-01-27T05:48:20;4.30;99.90
37446;DHT22;23307;51.136;14.942;2024-01-27T05:50:55;4.30;99.90
37446;DHT22;23307;51.136;14.942;2024-01-27T05:53:21;4.20;99.90
37446;DHT22;23307;51.136;14.942;2024-01-27T05:55:47;4.20;99.90
37446;DHT22;23307;51.136;14.942;2024-01-27T05:58:13;4.20;99.90
37446;DHT22;23307;51.136;14.942;2024-01-27T06:00:39;4.20;99.90
37446;DHT22;23307;51.136;14.942;2024-01-27T06:03:04;4.20;99.90
37446;DHT22;23307;51.136;14.942;2024-01-27T06:05:30;4.20;99.90
37446;DHT22;23307;51.136;14.942;2024-01-27T06:07:55;4.20;99.90
37446;DHT22;23307;51.136;14.942;2024-01-27T06:10:21;4.20;99.90
37446;DHT22;23307;51.136;14.942;2024-01-27T06:12:47;4.20;99.90
37446;DHT22;23307;51.136;14.942;2024-01-27T06:15:13;4.20;99.90
37446;DHT22;23307;51.136;14.942;2024-01-27T06:17:40;4.20;99.90
37446;DHT22;23307;51.136;14.942;2024-01-27T06:20:06;4.20;99.90
37446;DHT22;23307;51.136;14.942;2024-01-27T06:22:32;4.20;99.90
37446;DHT22;23307;51.136;14.942;2024-01-27T06:24:58;4.20;99.90
37446;DHT22;23307;51.136;14.942;2024-01-27T06:27:24;4.20;99.90
37446;DHT22;23307;51.136;14.942;2024-01-27T06:29:49;4.20;99.90
37446;DHT22;23307;51.136;14.942;2024-01-27T06:32:15;4.20;99.90
37446;DHT22;23307;51.136;14.942;2024-01-27T06:34:41;4.20;99.90
37446;DHT22;23307;51.136;14.942;2024-01-27T06:37:06;4.20;99.90
37446;DHT22;23307;51.136;14.942;2024-01-27T06:39:32;4.20;99.90
37446;DHT22;23307;51.136;14.942;2024-01-27T06:41:57;4.20;99.90
37446;DHT22;23307;51.136;14.942;2024-01-27T06:44:23;4.20;99.90
37446;DHT22;23307;51.136;14.942;2024-01-27T06:46:48;4.20;99.90
37446;DHT22;23307;51.136;14.942;2024-01-27T06:49:17;4.20;99.90
37446;DHT22;23307;51.136;14.942;2024-01-27T06:51:43;4.20;99.90
37446;DHT22;23307;51.136;14.942;2024-01-27T06:54:09;4.20;99.90
37446;DHT22;23307;51.136;14.942;2024-01-27T06:56:35;4.20;99.90
37446;DHT22;23307;51.136;14.942;2024-01-27T06:59:00;4.20;99.90
37446;DHT22;23307;51.136;14.942;2024-01-27T07:01:26;4.20;99.90
37446;DHT22;23307;51.136;14.942;2024-01-27T07:03:51;4.20;99.90
37446;DHT22;23307;51.136;14.942;2024-01-27T07:06:17;4.20;99.90
37446;DHT22;23307;51.136;14.942;2024-01-27T07:08:42;4.20;99.90
37446;DHT22;23307;51.136;14.942;2024-01-27T07:11:08;4.20;99.90
37446;DHT22;23307;51.136;14.942;2024-01-27T07:13:33;4.20;99.90
37446;DHT22;23307;51.136;14.942;2024-01-27T07:15:59;4.30;99.90
37446;DHT22;23307;51.136;14.942;2024-01-27T07:18:25;4.30;99.90
37446;DHT22;23307;51.136;14.942;2024-01-27T07:20:51;4.30;99.90
37446;DHT22;23307;51.136;14.942;2024-01-27T07:23:17;4.30;99.90
37446;DHT22;23307;51.136;14.942;2024-01-27T07:25:43;4.30;99.90
37446;DHT22;23307;51.136;14.942;2024-01-27T07:28:08;4.30;99.90
37446;DHT22;23307;51.136;14.942;2024-01-27T07:30:34;4.30;99.90
37446;DHT22;23307;51.136;14.942;2024-01-27T07:32:59;4.30;99.90
37446;DHT22;23307;51.136;14.942;2024-01-27T07:35:25;4.30;99.90
37446;DHT22;23307;51.136;14.942;2024-01-27T07:37:50;4.30;99.90
37446;DHT22;23307;51.136;14.942;2024-01-27T07:40:16;4.30;99.90
37446;DHT22;23307;51.136;14.942;2024-01-27T07:42:41;4.30;99.90
37446;DHT22;23307;51.136;14.942;2024-01-27T07:45:07;4.30;99.90
37446;DHT22;23307;51.136;14.942;2024-01-27T07:47:34;4.40;99.90
37446;DHT22;23307;51.136;14.942;2024-01-27T07:49:59;4.40;99.90
37446;DHT22;23307;51.136;14.942;2024-01-27T07:52:25;4.40;99.90
37446;DHT22;23307;51.136;14.942;2024-01-27T07:54:50;4.40;99.90
37446;DHT22;23307;51.136;14.942;2024-01-27T07:57:16;4.40;99.90
37446;DHT22;23307;51.136;14.942;2024-01-27T07:59:41;4.40;99.90
37446;DHT22;23307;51.136;14.942;2024-01-27T08:02:07;4.40;99.90
37446;DHT22;23307;51.136;14.942;2024-01-27T08:04:33;4.40;99.90
37446;DHT22;23307;51.136;14.942;2024-01-27T08:06:58;4.40;99.90
37446;DHT22;23307;51.136;14.942;2024-01-27T08:09:24;4.50;99.90
37446;DHT22;23307;51.136;14.942;2024-01-27T08:11:50;4.50;99.90
37446;DHT22;23307;51.136;14.942;2024-01-27T08:14:18;4.50;99.90
37446;DHT22;23307;51.136;14.942;2024-01-27T08:16:43;4.50;99.90
37446;DHT22;23307;51.136;14.942;2024-01-27T08:19:09;4.50;99.90
37446;DHT22;23307;51.136;14.942;2024-01-27T08:21:34;4.50;99.90
37446;DHT22;23307;51.136;14.942;2024-01-27T08:24:01;4.50;99.90
37446;DHT22;23307;51.136;14.942;2024-01-27T08:26:26;4.40;99.90
37446;DHT22;23307;51.136;14.942;2024-01-27T08:28:52;4.40;99.90
37446;DHT22;23307;51.136;14.942;2024-01-27T08:31:19;4.50;99.90
37446;DHT22;23307;51.136;14.942;2024-01-27T08:33:45;4.50;99.90
37446;DHT22;23307;51.136;14.942;2024-01-27T08:36:16;4.50;99.90
37446;DHT22;23307;51.136;14.942;2024-01-27T08:38:42;4.50;99.90
37446;DHT22;23307;51.136;14.942;2024-01-27T08:41:07;4.50;99.90
37446;DHT22;23307;51.136;14.942;2024-01-27T08:43:33;4.50;99.90
37446;DHT22;23307;51.136;14.942;2024-01-27T08:45:58;4.60;99.90
37446;DHT22;23307;51.136;14.942;2024-01-27T08:48:25;4.60;99.90
37446;DHT22;23307;51.136;14.942;2024-01-27T08:50:51;4.70;99.90
37446;DHT22;23307;51.136;14.942;2024-01-27T08:53:16;4.70;99.90
37446;DHT22;23307;51.136;14.942;2024-01-27T08:55:42;4.70;99.90
37446;DHT22;23307;51.136;14.942;2024-01-27T08:58:08;4.70;99.90
37446;DHT22;23307;51.136;14.942;2024-01-27T09:00:33;4.70;99.90
37446;DHT22;23307;51.136;14.942;2024-01-27T09:02:59;4.70;99.90
37446;DHT22;23307;51.136;14.942;2024-01-27T09:05:24;4.70;99.90
37446;DHT22;23307;51.136;14.942;2024-01-27T09:07:50;4.70;99.90
37446;DHT22;23307;51.136;14.942;2024-01-27T09:10:15;4.70;99.90
37446;DHT22;23307;51.136;14.942;2024-01-27T09:12:41;4.80;99.90
37446;DHT22;23307;51.136;14.942;2024-01-27T09:15:07;4.80;99.90
37446;DHT22;23307;51.136;14.942;2024-01-27T09:17:33;4.90;99.90
37446;DHT22;23307;51.136;14.942;2024-01-27T09:19:58;4.90;99.90
37446;DHT22;23307;51.136;14.942;2024-01-27T09:22:24;4.90;99.90
37446;DHT22;23307;51.136;14.942;2024-01-27T09:24:51;4.90;99.90
37446;DHT22;23307;51.136;14.942;2024-01-27T09:27:17;4.90;99.90
37446;DHT22;23307;51.136;14.942;2024-01-27T09:29:42;5.00;99.90
37446;DHT22;23307;51.136;14.942;2024-01-27T09:32:08;5.00;99.90
37446;DHT22;23307;51.136;14.942;2024-01-27T09:34:34;5.00;99.90
37446;DHT22;23307;51.136;14.942;2024-01-27T09:37:00;5.10;99.90
37446;DHT22;23307;51.136;14.942;2024-01-27T09:39:25;5.00;99.90
37446;DHT22;23307;51.136;14.942;2024-01-27T09:41:51;5.00;99.90
37446;DHT22;23307;51.136;14.942;2024-01-27T09:44:18;5.00;99.90
37446;DHT22;23307;51.136;14.942;2024-01-27T09:46:45;5.10;99.90
37446;DHT22;23307;51.136;14.942;2024-01-27T09:49:13;5.10;99.90
37446;DHT22;23307;51.136;14.942;2024-01-27T09:51:41;5.10;99.90
37446;DHT22;23307;51.136;14.942;2024-01-27T09:54:07;5.10;99.90
37446;DHT22;23307;51.136;14.942;2024-01-27T09:56:32;5.10;99.90
37446;DHT22;23307;51.136;14.942;2024-01-27T09:58:58;5.20;99.90
37446;DHT22;23307;51.136;14.942;2024-01-27T10:01:24;5.20;99.90
37446;DHT22;23307;51.136;14.942;2024-01-27T10:03:53;5.20;99.90
37446;DHT22;23307;51.136;14.942;2024-01-27T10:06:19;5.20;99.90
37446;DHT22;23307;51.136;14.942;2024-01-27T10:08:55;5.20;99.90
37446;DHT22;23307;51.136;14.942;2024-01-27T10:11:21;5.20;99.90
37446;DHT22;23307;51.136;14.942;2024-01-27T10:13:57;5.30;99.90
37446;DHT22;23307;51.136;14.942;2024-01-27T10:16:25;5.30;99.90
37446;DHT22;23307;51.136;14.942;2024-01-27T10:19:01;5.20;99.90
37446;DHT22;23307;51.136;14.942;2024-01-27T10:21:27;5.30;99.90
37446;DHT22;23307;51.136;14.942;2024-01-27T10:23:53;5.30;99.90
37446;DHT22;23307;51.136;14.942;2024-01-27T10:26:18;5.40;99.90
37446;DHT22;23307;51.136;14.942;2024-01-27T10:28:53;5.40;99.90
37446;DHT22;23307;51.136;14.942;2024-01-27T10:31:19;5.40;99.90
37446;DHT22;23307;51.136;14.942;2024-01-27T10:33:52;5.40;99.90
37446;DHT22;23307;51.136;14.942;2024-01-27T10:36:22;5.40;99.90
37446;DHT22;23307;51.136;14.942;2024-01-27T10:38:48;5.40;99.90
37446;DHT22;23307;51.136;14.942;2024-01-27T10:41:22;5.50;99.90
37446;DHT22;23307;51.136;14.942;2024-01-27T10:43:53;5.40;99.90
37446;DHT22;23307;51.136;14.942;2024-01-27T10:46:21;5.40;99.90
37446;DHT22;23307;51.136;14.942;2024-01-27T10:48:51;5.30;99.90
37446;DHT22;23307;51.136;14.942;2024-01-27T10:51:27;5.40;99.90
37446;DHT22;23307;51.136;14.942;2024-01-27T10:53:58;5.30;99.90
37446;DHT22;23307;51.136;14.942;2024-01-27T10:56:25;5.30;99.90
37446;DHT22;23307;51.136;14.942;2024-01-27T10:58:52;5.30;99.90
37446;DHT22;23307;51.136;14.942;2024-01-27T11:01:19;5.30;99.90
37446;DHT22;23307;51.136;14.942;2024-01-27T11:03:48;5.30;99.90
37446;DHT22;23307;51.136;14.942;2024-01-27T11:06:15;5.30;99.90
37446;DHT22;23307;51.136;14.942;2024-01-27T11:08:42;5.30;99.90
37446;DHT22;23307;51.136;14.942;2024-01-27T11:11:08;5.30;99.90
37446;DHT22;23307;51.136;14.942;2024-01-27T11:13:35;5.40;99.90
37446;DHT22;23307;51.136;14.942;2024-01-27T11:16:02;5.40;99.90
37446;DHT22;23307;51.136;14.942;2024-01-27T11:18:27;5.40;99.90
37446;DHT22;23307;51.136;14.942;2024-01-27T11:20:55;5.40;99.90
37446;DHT22;23307;51.136;14.942;2024-01-27T11:23:34;5.50;99.90
37446;DHT22;23307;51.136;14.942;2024-01-27T11:26:07;5.50;99.90
37446;DHT22;23307;51.136;14.942;2024-01-27T11:28:33;5.50;99.90
37446;DHT22;23307;51.136;14.942;2024-01-27T11:31:03;5.60;99.90
37446;DHT22;23307;51.136;14.942;2024-01-27T11:33:29;5.60;99.90
37446;DHT22;23307;51.136;14.942;2024-01-27T11:36:05;5.70;99.90
37446;DHT22;23307;51.136;14.942;2024-01-27T11:38:31;5.60;99.90
37446;DHT22;23307;51.136;14.942;2024-01-27T11:41:00;5.60;99.90
37446;DHT22;23307;51.136;14.942;2024-01-27T11:43:26;5.50;99.90
37446;DHT22;23307;51.136;14.942;2024-01-27T11:45:59;5.50;99.90
37446;DHT22;23307;51.136;14.942;2024-01-27T11:48:24;5.50;99.90
37446;DHT22;23307;51.136;14.942;2024-01-27T11:51:03;5.50;99.90
37446;DHT22;23307;51.136;14.942;2024-01-27T11:53:28;5.60;99.90
37446;DHT22;23307;51.136;14.942;2024-01-27T11:55:54;5.60;99.90
37446;DHT22;23307;51.136;14.942;2024-01-27T11:58:21;5.60;99.90
37446;DHT22;23307;51.136;14.942;2024-01-27T12:00:46;5.60;99.90
37446;DHT22;23307;51.136;14.942;2024-01-27T12:03:12;5.70;99.90
37446;DHT22;23307;51.136;14.942;2024-01-27T12:05:37;5.70;99.90
37446;DHT22;23307;51.136;14.942;2024-01-27T12:08:03;5.70;99.90
37446;DHT22;23307;51.136;14.942;2024-01-27T12:10:29;5.70;99.90
37446;DHT22;23307;51.136;14.942;2024-01-27T12:12:55;5.80;99.90
37446;DHT22;23307;51.136;14.942;2024-01-27T12:15:20;5.70;99.90
37446;DHT22;23307;51.136;14.942;2024-01-27T12:17:53;5.80;99.90
37446;DHT22;23307;51.136;14.942;2024-01-27T12:20:18;5.70;99.90
37446;DHT22;23307;51.136;14.942;2024-01-27T12:22:44;5.80;99.90
37446;DHT22;23307;51.136;14.942;2024-01-27T12:25:11;5.80;99.90
37446;DHT22;23307;51.136;14.942;2024-01-27T12:27:39;5.80;99.90
37446;DHT22;23307;51.136;14.942;2024-01-27T12:30:05;5.80;99.90
37446;DHT22;23307;51.136;14.942;2024-01-27T12:32:31;5.90;99.90
37446;DHT22;23307;51.136;14.942;2024-01-27T12:34:58;5.80;99.90
37446;DHT22;23307;51.136;14.942;2024-01-27T12:37:25;5.80;99.90
37446;DHT22;23307;51.136;14.942;2024-01-27T12:39:51;5.80;99.90
37446;DHT22;23307;51.136;14.942;2024-01-27T12:42:17;5.80;99.90
37446;DHT22;23307;51.136;14.942;2024-01-27T12:44:43;5.80;99.90
37446;DHT22;23307;51.136;14.942;2024-01-27T12:47:10;5.80;99.90
37446;DHT22;23307;51.136;14.942;2024-01-27T12:49:36;5.80;99.90
37446;DHT22;23307;51.136;14.942;2024-01-27T12:52:01;5.90;99.90
37446;DHT22;23307;51.136;14.942;2024-01-27T12:54:27;5.80;99.90
37446;DHT22;23307;51.136;14.942;2024-01-27T12:56:52;5.90;99.90
37446;DHT22;23307;51.136;14.942;2024-01-27T12:59:18;5.90;99.90
37446;DHT22;23307;51.136;14.942;2024-01-27T13:01:43;6.00;99.90
37446;DHT22;23307;51.136;14.942;2024-01-27T13:04:09;6.00;99.90
37446;DHT22;23307;51.136;14.942;2024-01-27T13:06:35;6.00;99.90
37446;DHT22;23307;51.136;14.942;2024-01-27T13:09:01;6.00;99.90
37446;DHT22;23307;51.136;14.942;2024-01-27T13:11:26;6.10;99.90
37446;DHT22;23307;51.136;14.942;2024-01-27T13:13:52;6.20;99.90
37446;DHT22;23307;51.136;14.942;2024-01-27T13:16:17;6.30;99.90
37446;DHT22;23307;51.136;14.942;2024-01-27T13:18:43;6.40;99.90
37446;DHT22;23307;51.136;14.942;2024-01-27T13:21:09;6.30;99.90
37446;DHT22;23307;51.136;14.942;2024-01-27T13:23:35;6.30;99.90
37446;DHT22;23307;51.136;14.942;2024-01-27T13:26:01;6.40;99.90
37446;DHT22;23307;51.136;14.942;2024-01-27T13:28:26;6.40;99.90
37446;DHT22;23307;51.136;14.942;2024-01-27T13:30:52;6.40;99.90
37446;DHT22;23307;51.136;14.942;2024-01-27T13:33:17;6.40;99.90
37446;DHT22;23307;51.136;14.942;2024-01-27T13:35:43;6.30;99.90
37446;DHT22;23307;51.136;14.942;2024-01-27T13:38:12;6.30;99.90
37446;DHT22;23307;51.136;14.942;2024-01-27T13:40:38;6.30;99.90
37446;DHT22;23307;51.136;14.942;2024-01-27T13:43:04;6.30;99.90
37446;DHT22;23307;51.136;14.942;2024-01-27T13:45:30;6.20;99.90
37446;DHT22;23307;51.136;14.942;2024-01-27T13:47:57;6.20;99.90
37446;DHT22;23307;51.136;14.942;2024-01-27T13:50:22;6.20;99.90
37446;DHT22;23307;51.136;14.942;2024-01-27T13:52:48;6.20;99.90
37446;DHT22;23307;51.136;14.942;2024-01-27T13:55:13;6.20;99.90
37446;DHT22;23307;51.136;14.942;2024-01-27T13:57:39;6.10;99.90
37446;DHT22;23307;51.136;14.942;2024-01-27T14:00:06;6.10;99.90
37446;DHT22;23307;51.136;14.942;2024-01-27T14:02:32;6.10;99.90
37446;DHT22;23307;51.136;14.942;2024-01-27T14:04:57;6.10;99.90
37446;DHT22;23307;51.136;14.942;2024-01-27T14:07:23;6.10;99.90
37446;DHT22;23307;51.136;14.942;2024-01-27T14:09:48;6.10;99.90
37446;DHT22;23307;51.136;14.942;2024-01-27T14:12:14;6.20;99.90
37446;DHT22;23307;51.136;14.942;2024-01-27T14:14:41;6.20;99.90
37446;DHT22;23307;51.136;14.942;2024-01-27T14:17:08;6.20;99.90
37446;DHT22;23307;51.136;14.942;2024-01-27T14:19:33;6.20;99.90
37446;DHT22;23307;51.136;14.942;2024-01-27T14:21:59;6.20;99.90
37446;DHT22;23307;51.136;14.942;2024-01-27T14:24:24;6.20;99.90
37446;DHT22;23307;51.136;14.942;2024-01-27T14:26:51;6.20;99.90
37446;DHT22;23307;51.136;14.942;2024-01-27T14:29:17;6.20;99.90
37446;DHT22;23307;51.136;14.942;2024-01-27T14:31:42;6.20;99.90
37446;DHT22;23307;51.136;14.942;2024-01-27T14:34:08;6.30;99.90
37446;DHT22;23307;51.136;14.942;2024-01-27T14:36:35;6.30;99.90
37446;DHT22;23307;51.136;14.942;2024-01-27T14:39:01;6.20;99.90
37446;DHT22;23307;51.136;14.942;2024-01-27T14:41:27;6.30;99.90
37446;DHT22;23307;51.136;14.942;2024-01-27T14:43:52;6.30;99.90
37446;DHT22;23307;51.136;14.942;2024-01-27T14:46:18;6.30;99.90
37446;DHT22;23307;51.136;14.942;2024-01-27T14:48:44;6.30;99.90
37446;DHT22;23307;51.136;14.942;2024-01-27T14:51:11;6.30;99.90
37446;DHT22;23307;51.136;14.942;2024-01-27T14:53:38;6.40;99.90
37446;DHT22;23307;51.136;14.942;2024-01-27T14:56:03;6.30;99.90
37446;DHT22;23307;51.136;14.942;2024-01-27T14:58:29;6.30;99.90
37446;DHT22;23307;51.136;14.942;2024-01-27T15:00:54;6.30;99.90
37446;DHT22;23307;51.136;14.942;2024-01-27T15:03:24;6.30;99.90
37446;DHT22;23307;51.136;14.942;2024-01-27T15:05:50;6.30;99.90
37446;DHT22;23307;51.136;14.942;2024-01-27T15:08:17;6.30;99.90
37446;DHT22;23307;51.136;14.942;2024-01-27T15:10:42;6.40;99.90
37446;DHT22;23307;51.136;14.942;2024-01-27T15:13:09;6.30;99.90
37446;DHT22;23307;51.136;14.942;2024-01-27T15:15:36;6.30;99.90
37446;DHT22;23307;51.136;14.942;2024-01-27T15:18:01;6.30;99.90
37446;DHT22;23307;51.136;14.942;2024-01-27T15:20:27;6.30;99.90
37446;DHT22;23307;51.136;14.942;2024-01-27T15:22:53;6.20;99.90